sensor_id;sensor_type;location;lat;lon;timestamp;P1;durP1;ratioP1;P2;durP2;ratioP2
34317;SDS011;20582;52.196;20.952;2023-03-31T00:01:47;25.83;;;17.42;;
34317;SDS011;20582;52.196;20.952;2023-03-31T00:04:13;31.23;;;19.45;;
34317;SDS011;20582;52.196;20.952;2023-03-31T00:06:40;29.63;;;18.98;;
34317;SDS011;20582;52.196;20.952;2023-03-31T00:09:10;32.17;;;19.70;;
34317;SDS011;20582;52.196;20.952;2023-03-31T00:11:37;29.17;;;19.23;;
34317;SDS011;20582;52.196;20.952;2023-03-31T00:14:03;27.92;;;18.08;;
34317;SDS011;20582;52.196;20.952;2023-03-31T00:16:33;26.23;;;17.30;;
34317;SDS011;20582;52.196;20.952;2023-03-31T00:18:59;27.13;;;16.98;;
34317;SDS011;20582;52.196;20.952;2023-03-31T00:21:26;28.40;;;17.80;;
34317;SDS011;20582;52.196;20.952;2023-03-31T00:23:59;25.85;;;16.88;;
34317;SDS011;20582;52.196;20.952;2023-03-31T00:26:25;28.63;;;16.25;;
34317;SDS011;20582;52.196;20.952;2023-03-31T00:28:52;26.98;;;15.63;;
34317;SDS011;20582;52.196;20.952;2023-03-31T00:31:18;23.95;;;15.63;;
34317;SDS011;20582;52.196;20.952;2023-03-31T00:33:44;21.95;;;15.02;;
34317;SDS011;20582;52.196;20.952;2023-03-31T00:36:10;25.13;;;15.27;;
34317;SDS011;20582;52.196;20.952;2023-03-31T00:38:36;23.98;;;15.52;;
34317;SDS011;20582;52.196;20.952;2023-03-31T00:41:03;23.75;;;15.15;;
34317;SDS011;20582;52.196;20.952;2023-03-31T00:46:04;25.40;;;14.57;;
34317;SDS011;20582;52.196;20.952;2023-03-31T00:48:32;22.08;;;14.35;;
34317;SDS011;20582;52.196;20.952;2023-03-31T00:50:59;22.80;;;14.55;;
34317;SDS011;20582;52.196;20.952;2023-03-31T00:53:29;24.77;;;15.57;;
34317;SDS011;20582;52.196;20.952;2023-03-31T00:55:56;25.10;;;14.65;;
34317;SDS011;20582;52.196;20.952;2023-03-31T00:58:23;22.92;;;14.30;;
34317;SDS011;20582;52.196;20.952;2023-03-31T01:00:54;19.52;;;12.43;;
34317;SDS011;20582;52.196;20.952;2023-03-31T01:03:21;19.08;;;12.30;;
34317;SDS011;20582;52.196;20.952;2023-03-31T01:08:14;21.55;;;12.15;;
34317;SDS011;20582;52.196;20.952;2023-03-31T01:10:42;24.05;;;11.95;;
34317;SDS011;20582;52.196;20.952;2023-03-31T01:13:10;19.23;;;11.95;;
34317;SDS011;20582;52.196;20.952;2023-03-31T01:15:36;22.02;;;12.40;;
34317;SDS011;20582;52.196;20.952;2023-03-31T01:18:03;20.67;;;12.07;;
34317;SDS011;20582;52.196;20.952;2023-03-31T01:20:43;18.23;;;12.45;;
34317;SDS011;20582;52.196;20.952;2023-03-31T01:28:31;18.45;;;12.77;;
34317;SDS011;20582;52.196;20.952;2023-03-31T01:36:24;20.42;;;12.15;;
34317;SDS011;20582;52.196;20.952;2023-03-31T01:41:43;20.55;;;13.40;;
34317;SDS011;20582;52.196;20.952;2023-03-31T01:51:41;18.02;;;11.68;;
34317;SDS011;20582;52.196;20.952;2023-03-31T01:56:56;21.30;;;12.88;;
34317;SDS011;20582;52.196;20.952;2023-03-31T01:59:26;18.55;;;11.63;;
34317;SDS011;20582;52.196;20.952;2023-03-31T02:01:54;19.85;;;12.13;;
34317;SDS011;20582;52.196;20.952;2023-03-31T02:04:22;20.77;;;12.43;;
34317;SDS011;20582;52.196;20.952;2023-03-31T02:06:53;20.85;;;12.82;;
34317;SDS011;20582;52.196;20.952;2023-03-31T02:09:22;20.05;;;12.90;;
34317;SDS011;20582;52.196;20.952;2023-03-31T02:11:49;18.77;;;12.80;;
34317;SDS011;20582;52.196;20.952;2023-03-31T02:14:20;18.65;;;12.35;;
34317;SDS011;20582;52.196;20.952;2023-03-31T02:16:48;19.63;;;12.48;;
34317;SDS011;20582;52.196;20.952;2023-03-31T02:19:15;19.40;;;11.95;;
34317;SDS011;20582;52.196;20.952;2023-03-31T02:21:42;22.92;;;12.77;;
34317;SDS011;20582;52.196;20.952;2023-03-31T02:24:10;19.98;;;12.25;;
34317;SDS011;20582;52.196;20.952;2023-03-31T02:26:38;22.15;;;13.40;;
34317;SDS011;20582;52.196;20.952;2023-03-31T02:29:06;21.15;;;13.00;;
34317;SDS011;20582;52.196;20.952;2023-03-31T02:33:58;22.40;;;12.35;;
34317;SDS011;20582;52.196;20.952;2023-03-31T02:36:25;17.65;;;12.52;;
34317;SDS011;20582;52.196;20.952;2023-03-31T02:38:58;18.80;;;12.55;;
34317;SDS011;20582;52.196;20.952;2023-03-31T02:41:26;18.75;;;12.43;;
34317;SDS011;20582;52.196;20.952;2023-03-31T02:43:52;18.30;;;11.65;;
34317;SDS011;20582;52.196;20.952;2023-03-31T02:46:18;19.30;;;12.15;;
34317;SDS011;20582;52.196;20.952;2023-03-31T02:48:46;20.50;;;12.43;;
34317;SDS011;20582;52.196;20.952;2023-03-31T02:56:33;18.10;;;12.50;;
34317;SDS011;20582;52.196;20.952;2023-03-31T02:59:09;17.77;;;11.73;;
34317;SDS011;20582;52.196;20.952;2023-03-31T03:01:43;18.10;;;12.35;;
34317;SDS011;20582;52.196;20.952;2023-03-31T03:12:15;18.70;;;12.85;;
34317;SDS011;20582;52.196;20.952;2023-03-31T03:14:53;19.85;;;12.75;;
34317;SDS011;20582;52.196;20.952;2023-03-31T03:17:25;18.77;;;13.55;;
34317;SDS011;20582;52.196;20.952;2023-03-31T03:19:52;22.88;;;13.90;;
34317;SDS011;20582;52.196;20.952;2023-03-31T03:22:19;20.90;;;13.18;;
34317;SDS011;20582;52.196;20.952;2023-03-31T03:24:45;18.00;;;13.38;;
34317;SDS011;20582;52.196;20.952;2023-03-31T03:27:11;21.42;;;13.25;;
34317;SDS011;20582;52.196;20.952;2023-03-31T03:29:37;20.77;;;13.27;;
34317;SDS011;20582;52.196;20.952;2023-03-31T03:32:03;21.50;;;13.23;;
34317;SDS011;20582;52.196;20.952;2023-03-31T03:34:29;22.38;;;13.85;;
34317;SDS011;20582;52.196;20.952;2023-03-31T03:36:55;23.15;;;13.68;;
34317;SDS011;20582;52.196;20.952;2023-03-31T03:39:21;22.77;;;13.35;;
34317;SDS011;20582;52.196;20.952;2023-03-31T03:41:47;21.45;;;14.00;;
34317;SDS011;20582;52.196;20.952;2023-03-31T03:44:13;21.73;;;14.73;;
34317;SDS011;20582;52.196;20.952;2023-03-31T03:46:39;22.75;;;14.50;;
34317;SDS011;20582;52.196;20.952;2023-03-31T03:49:05;21.80;;;14.65;;
34317;SDS011;20582;52.196;20.952;2023-03-31T03:51:31;26.50;;;15.15;;
34317;SDS011;20582;52.196;20.952;2023-03-31T03:53:57;25.90;;;15.43;;
34317;SDS011;20582;52.196;20.952;2023-03-31T03:56:23;24.60;;;15.82;;
34317;SDS011;20582;52.196;20.952;2023-03-31T03:58:50;27.20;;;15.43;;
34317;SDS011;20582;52.196;20.952;2023-03-31T04:01:16;25.88;;;16.13;;
34317;SDS011;20582;52.196;20.952;2023-03-31T04:03:42;27.85;;;15.98;;
34317;SDS011;20582;52.196;20.952;2023-03-31T04:06:08;27.55;;;16.98;;
34317;SDS011;20582;52.196;20.952;2023-03-31T04:08:34;28.33;;;17.70;;
34317;SDS011;20582;52.196;20.952;2023-03-31T04:11:00;28.13;;;17.73;;
34317;SDS011;20582;52.196;20.952;2023-03-31T04:13:26;30.33;;;17.23;;
34317;SDS011;20582;52.196;20.952;2023-03-31T04:15:52;28.73;;;17.50;;
34317;SDS011;20582;52.196;20.952;2023-03-31T04:18:19;32.05;;;17.98;;
34317;SDS011;20582;52.196;20.952;2023-03-31T04:20:51;29.73;;;17.52;;
34317;SDS011;20582;52.196;20.952;2023-03-31T04:23:33;33.75;;;19.17;;
34317;SDS011;20582;52.196;20.952;2023-03-31T04:25:59;31.02;;;19.10;;
34317;SDS011;20582;52.196;20.952;2023-03-31T04:28:26;30.75;;;18.27;;
34317;SDS011;20582;52.196;20.952;2023-03-31T04:30:58;33.83;;;18.63;;
34317;SDS011;20582;52.196;20.952;2023-03-31T04:33:24;30.10;;;18.65;;
34317;SDS011;20582;52.196;20.952;2023-03-31T04:35:50;30.35;;;18.77;;
34317;SDS011;20582;52.196;20.952;2023-03-31T04:38:20;34.70;;;20.58;;
34317;SDS011;20582;52.196;20.952;2023-03-31T04:40:47;32.17;;;17.83;;
34317;SDS011;20582;52.196;20.952;2023-03-31T04:43:13;32.80;;;19.05;;
34317;SDS011;20582;52.196;20.952;2023-03-31T04:45:40;32.53;;;19.15;;
34317;SDS011;20582;52.196;20.952;2023-03-31T04:48:06;31.80;;;19.80;;
34317;SDS011;20582;52.196;20.952;2023-03-31T04:50:32;28.77;;;18.15;;
34317;SDS011;20582;52.196;20.952;2023-03-31T04:52:58;31.33;;;18.10;;
34317;SDS011;20582;52.196;20.952;2023-03-31T04:55:24;33.97;;;19.85;;
34317;SDS011;20582;52.196;20.952;2023-03-31T04:57:51;32.92;;;19.13;;
34317;SDS011;20582;52.196;20.952;2023-03-31T05:00:17;33.15;;;19.13;;
34317;SDS011;20582;52.196;20.952;2023-03-31T05:02:43;33.45;;;20.45;;
34317;SDS011;20582;52.196;20.952;2023-03-31T05:05:09;30.00;;;18.10;;
34317;SDS011;20582;52.196;20.952;2023-03-31T05:07:35;30.45;;;17.80;;
34317;SDS011;20582;52.196;20.952;2023-03-31T05:10:01;29.17;;;18.75;;
34317;SDS011;20582;52.196;20.952;2023-03-31T05:12:27;29.40;;;19.77;;
34317;SDS011;20582;52.196;20.952;2023-03-31T05:14:53;33.67;;;18.70;;
34317;SDS011;20582;52.196;20.952;2023-03-31T05:17:19;29.30;;;18.85;;
34317;SDS011;20582;52.196;20.952;2023-03-31T05:19:46;33.00;;;19.45;;
34317;SDS011;20582;52.196;20.952;2023-03-31T05:22:12;25.58;;;17.70;;
34317;SDS011;20582;52.196;20.952;2023-03-31T05:24:38;28.33;;;18.50;;
34317;SDS011;20582;52.196;20.952;2023-03-31T05:27:04;36.53;;;21.17;;
34317;SDS011;20582;52.196;20.952;2023-03-31T05:29:30;34.20;;;21.88;;
34317;SDS011;20582;52.196;20.952;2023-03-31T05:31:56;32.28;;;21.38;;
34317;SDS011;20582;52.196;20.952;2023-03-31T05:34:22;33.40;;;20.65;;
34317;SDS011;20582;52.196;20.952;2023-03-31T05:36:48;33.60;;;21.80;;
34317;SDS011;20582;52.196;20.952;2023-03-31T05:39:17;32.28;;;21.60;;
34317;SDS011;20582;52.196;20.952;2023-03-31T05:41:43;29.40;;;20.35;;
34317;SDS011;20582;52.196;20.952;2023-03-31T05:44:09;31.15;;;19.20;;
34317;SDS011;20582;52.196;20.952;2023-03-31T05:46:35;27.75;;;17.85;;
34317;SDS011;20582;52.196;20.952;2023-03-31T05:49:01;27.88;;;18.20;;
34317;SDS011;20582;52.196;20.952;2023-03-31T05:51:27;29.48;;;19.08;;
34317;SDS011;20582;52.196;20.952;2023-03-31T05:53:53;28.73;;;18.50;;
34317;SDS011;20582;52.196;20.952;2023-03-31T05:56:20;26.92;;;17.55;;
34317;SDS011;20582;52.196;20.952;2023-03-31T05:58:46;29.48;;;18.10;;
34317;SDS011;20582;52.196;20.952;2023-03-31T06:01:13;27.52;;;17.52;;
34317;SDS011;20582;52.196;20.952;2023-03-31T06:03:46;28.48;;;17.95;;
34317;SDS011;20582;52.196;20.952;2023-03-31T06:06:12;26.73;;;17.42;;
34317;SDS011;20582;52.196;20.952;2023-03-31T06:08:39;28.25;;;18.50;;
34317;SDS011;20582;52.196;20.952;2023-03-31T06:11:06;28.23;;;18.15;;
34317;SDS011;20582;52.196;20.952;2023-03-31T06:13:32;26.17;;;17.05;;
34317;SDS011;20582;52.196;20.952;2023-03-31T06:15:58;28.13;;;17.45;;
34317;SDS011;20582;52.196;20.952;2023-03-31T06:18:28;25.25;;;16.70;;
34317;SDS011;20582;52.196;20.952;2023-03-31T06:20:55;26.02;;;17.00;;
34317;SDS011;20582;52.196;20.952;2023-03-31T06:23:21;27.90;;;16.85;;
34317;SDS011;20582;52.196;20.952;2023-03-31T06:25:47;26.10;;;16.55;;
34317;SDS011;20582;52.196;20.952;2023-03-31T06:28:13;29.65;;;17.05;;
34317;SDS011;20582;52.196;20.952;2023-03-31T06:30:39;23.45;;;15.55;;
34317;SDS011;20582;52.196;20.952;2023-03-31T06:33:05;22.08;;;15.82;;
34317;SDS011;20582;52.196;20.952;2023-03-31T06:35:31;24.33;;;15.30;;
34317;SDS011;20582;52.196;20.952;2023-03-31T06:37:57;23.02;;;16.13;;
34317;SDS011;20582;52.196;20.952;2023-03-31T06:40:23;24.13;;;17.40;;
34317;SDS011;20582;52.196;20.952;2023-03-31T06:42:49;27.60;;;17.63;;
34317;SDS011;20582;52.196;20.952;2023-03-31T06:45:15;25.17;;;16.35;;
34317;SDS011;20582;52.196;20.952;2023-03-31T06:47:41;26.52;;;17.50;;
34317;SDS011;20582;52.196;20.952;2023-03-31T06:50:08;24.85;;;17.48;;
34317;SDS011;20582;52.196;20.952;2023-03-31T06:52:34;27.90;;;16.90;;
34317;SDS011;20582;52.196;20.952;2023-03-31T06:55:01;25.20;;;15.70;;
34317;SDS011;20582;52.196;20.952;2023-03-31T06:57:27;25.70;;;17.23;;
34317;SDS011;20582;52.196;20.952;2023-03-31T06:59:53;23.60;;;16.73;;
34317;SDS011;20582;52.196;20.952;2023-03-31T07:02:19;26.15;;;16.77;;
34317;SDS011;20582;52.196;20.952;2023-03-31T07:04:45;24.38;;;17.05;;
34317;SDS011;20582;52.196;20.952;2023-03-31T07:07:11;23.95;;;16.80;;
34317;SDS011;20582;52.196;20.952;2023-03-31T07:09:37;23.38;;;17.38;;
34317;SDS011;20582;52.196;20.952;2023-03-31T07:12:03;24.70;;;17.70;;
34317;SDS011;20582;52.196;20.952;2023-03-31T07:14:30;26.98;;;16.65;;
34317;SDS011;20582;52.196;20.952;2023-03-31T07:16:56;24.98;;;17.40;;
34317;SDS011;20582;52.196;20.952;2023-03-31T07:19:22;25.80;;;17.20;;
34317;SDS011;20582;52.196;20.952;2023-03-31T07:21:48;29.67;;;17.88;;
34317;SDS011;20582;52.196;20.952;2023-03-31T07:24:14;26.70;;;18.48;;
34317;SDS011;20582;52.196;20.952;2023-03-31T07:26:40;24.85;;;17.35;;
34317;SDS011;20582;52.196;20.952;2023-03-31T07:29:06;29.27;;;18.90;;
34317;SDS011;20582;52.196;20.952;2023-03-31T07:31:32;27.27;;;18.35;;
34317;SDS011;20582;52.196;20.952;2023-03-31T07:34:00;25.67;;;18.17;;
34317;SDS011;20582;52.196;20.952;2023-03-31T07:36:26;27.10;;;17.58;;
34317;SDS011;20582;52.196;20.952;2023-03-31T07:38:52;29.17;;;18.50;;
34317;SDS011;20582;52.196;20.952;2023-03-31T07:41:18;26.90;;;18.13;;
34317;SDS011;20582;52.196;20.952;2023-03-31T07:43:45;25.02;;;17.83;;
34317;SDS011;20582;52.196;20.952;2023-03-31T07:46:14;25.98;;;18.58;;
34317;SDS011;20582;52.196;20.952;2023-03-31T07:48:41;25.75;;;18.27;;
34317;SDS011;20582;52.196;20.952;2023-03-31T07:51:07;27.35;;;18.13;;
34317;SDS011;20582;52.196;20.952;2023-03-31T07:53:33;26.50;;;17.50;;
34317;SDS011;20582;52.196;20.952;2023-03-31T07:55:59;26.67;;;18.00;;
34317;SDS011;20582;52.196;20.952;2023-03-31T07:58:25;26.90;;;17.38;;
34317;SDS011;20582;52.196;20.952;2023-03-31T08:00:52;25.92;;;17.00;;
34317;SDS011;20582;52.196;20.952;2023-03-31T08:03:18;23.50;;;16.45;;
34317;SDS011;20582;52.196;20.952;2023-03-31T08:05:44;25.00;;;16.42;;
34317;SDS011;20582;52.196;20.952;2023-03-31T08:08:10;25.33;;;15.93;;
34317;SDS011;20582;52.196;20.952;2023-03-31T08:10:36;22.90;;;15.98;;
34317;SDS011;20582;52.196;20.952;2023-03-31T08:13:02;22.95;;;14.77;;
34317;SDS011;20582;52.196;20.952;2023-03-31T08:15:28;23.60;;;15.68;;
34317;SDS011;20582;52.196;20.952;2023-03-31T08:17:54;22.73;;;16.20;;
34317;SDS011;20582;52.196;20.952;2023-03-31T08:20:20;23.25;;;15.65;;
34317;SDS011;20582;52.196;20.952;2023-03-31T08:22:46;20.35;;;14.30;;
34317;SDS011;20582;52.196;20.952;2023-03-31T08:25:12;21.67;;;14.18;;
34317;SDS011;20582;52.196;20.952;2023-03-31T08:27:38;22.80;;;14.80;;
34317;SDS011;20582;52.196;20.952;2023-03-31T08:30:05;22.50;;;14.60;;
34317;SDS011;20582;52.196;20.952;2023-03-31T08:32:31;21.15;;;13.25;;
34317;SDS011;20582;52.196;20.952;2023-03-31T08:34:57;19.77;;;12.05;;
34317;SDS011;20582;52.196;20.952;2023-03-31T08:37:23;17.67;;;12.38;;
34317;SDS011;20582;52.196;20.952;2023-03-31T08:39:50;18.02;;;11.50;;
34317;SDS011;20582;52.196;20.952;2023-03-31T08:42:19;17.55;;;11.40;;
34317;SDS011;20582;52.196;20.952;2023-03-31T08:45:47;16.40;;;10.80;;
34317;SDS011;20582;52.196;20.952;2023-03-31T08:47:42;18.80;;;11.02;;
34317;SDS011;20582;52.196;20.952;2023-03-31T08:50:13;17.38;;;11.15;;
34317;SDS011;20582;52.196;20.952;2023-03-31T08:52:41;17.55;;;10.30;;
34317;SDS011;20582;52.196;20.952;2023-03-31T08:55:17;16.58;;;10.27;;
34317;SDS011;20582;52.196;20.952;2023-03-31T09:00:33;14.32;;;9.77;;
34317;SDS011;20582;52.196;20.952;2023-03-31T09:03:04;19.05;;;9.77;;
34317;SDS011;20582;52.196;20.952;2023-03-31T09:05:45;16.33;;;9.13;;
34317;SDS011;20582;52.196;20.952;2023-03-31T09:10:52;14.93;;;8.82;;
34317;SDS011;20582;52.196;20.952;2023-03-31T09:15:47;16.27;;;8.45;;
34317;SDS011;20582;52.196;20.952;2023-03-31T09:18:22;14.05;;;7.78;;
34317;SDS011;20582;52.196;20.952;2023-03-31T09:20:51;14.82;;;7.80;;
34317;SDS011;20582;52.196;20.952;2023-03-31T09:26:03;14.95;;;7.40;;
34317;SDS011;20582;52.196;20.952;2023-03-31T09:28:36;13.98;;;7.32;;
34317;SDS011;20582;52.196;20.952;2023-03-31T09:31:07;12.80;;;6.72;;
34317;SDS011;20582;52.196;20.952;2023-03-31T09:33:38;14.73;;;6.90;;
34317;SDS011;20582;52.196;20.952;2023-03-31T09:36:16;13.23;;;7.00;;
34317;SDS011;20582;52.196;20.952;2023-03-31T09:38:43;16.40;;;8.32;;
34317;SDS011;20582;52.196;20.952;2023-03-31T09:41:09;16.65;;;7.35;;
34317;SDS011;20582;52.196;20.952;2023-03-31T09:43:35;14.45;;;7.10;;
34317;SDS011;20582;52.196;20.952;2023-03-31T09:46:09;15.85;;;7.32;;
34317;SDS011;20582;52.196;20.952;2023-03-31T09:48:39;15.82;;;7.22;;
34317;SDS011;20582;52.196;20.952;2023-03-31T09:51:07;11.25;;;6.45;;
34317;SDS011;20582;52.196;20.952;2023-03-31T09:56:05;11.90;;;5.70;;
34317;SDS011;20582;52.196;20.952;2023-03-31T09:58:39;11.93;;;5.53;;
34317;SDS011;20582;52.196;20.952;2023-03-31T10:01:06;15.27;;;5.85;;
34317;SDS011;20582;52.196;20.952;2023-03-31T10:03:40;13.82;;;5.32;;
34317;SDS011;20582;52.196;20.952;2023-03-31T10:06:09;12.27;;;5.13;;
34317;SDS011;20582;52.196;20.952;2023-03-31T10:08:42;15.32;;;4.90;;
34317;SDS011;20582;52.196;20.952;2023-03-31T10:11:12;12.15;;;4.90;;
34317;SDS011;20582;52.196;20.952;2023-03-31T10:16:05;13.00;;;4.30;;
34317;SDS011;20582;52.196;20.952;2023-03-31T10:18:37;11.55;;;4.43;;
34317;SDS011;20582;52.196;20.952;2023-03-31T10:21:05;9.70;;;3.88;;
34317;SDS011;20582;52.196;20.952;2023-03-31T10:23:32;12.95;;;4.30;;
34317;SDS011;20582;52.196;20.952;2023-03-31T10:25:58;10.23;;;4.25;;
34317;SDS011;20582;52.196;20.952;2023-03-31T10:28:25;13.05;;;4.20;;
34317;SDS011;20582;52.196;20.952;2023-03-31T10:30:52;12.68;;;4.28;;
34317;SDS011;20582;52.196;20.952;2023-03-31T10:33:21;11.73;;;4.28;;
34317;SDS011;20582;52.196;20.952;2023-03-31T10:35:49;9.20;;;4.10;;
34317;SDS011;20582;52.196;20.952;2023-03-31T10:38:22;12.52;;;4.30;;
34317;SDS011;20582;52.196;20.952;2023-03-31T10:40:50;11.60;;;4.15;;
34317;SDS011;20582;52.196;20.952;2023-03-31T10:43:17;9.60;;;3.58;;
34317;SDS011;20582;52.196;20.952;2023-03-31T10:45:57;11.98;;;4.07;;
34317;SDS011;20582;52.196;20.952;2023-03-31T10:48:29;11.30;;;4.18;;
34317;SDS011;20582;52.196;20.952;2023-03-31T10:50:59;9.55;;;3.92;;
34317;SDS011;20582;52.196;20.952;2023-03-31T10:53:25;11.33;;;3.83;;
34317;SDS011;20582;52.196;20.952;2023-03-31T11:06:09;9.95;;;3.67;;
34317;SDS011;20582;52.196;20.952;2023-03-31T11:11:39;9.10;;;3.60;;
34317;SDS011;20582;52.196;20.952;2023-03-31T11:14:17;8.37;;;3.93;;
34317;SDS011;20582;52.196;20.952;2023-03-31T11:40:38;11.10;;;4.30;;
34317;SDS011;20582;52.196;20.952;2023-03-31T11:43:14;14.02;;;4.50;;
34317;SDS011;20582;52.196;20.952;2023-03-31T11:48:34;12.13;;;4.68;;
34317;SDS011;20582;52.196;20.952;2023-03-31T11:51:03;10.68;;;4.65;;
34317;SDS011;20582;52.196;20.952;2023-03-31T11:53:30;12.18;;;4.90;;
34317;SDS011;20582;52.196;20.952;2023-03-31T11:55:57;10.60;;;4.57;;
34317;SDS011;20582;52.196;20.952;2023-03-31T12:00:56;12.00;;;5.43;;
34317;SDS011;20582;52.196;20.952;2023-03-31T12:04:28;12.98;;;5.38;;
34317;SDS011;20582;52.196;20.952;2023-03-31T12:06:21;13.73;;;5.13;;
34317;SDS011;20582;52.196;20.952;2023-03-31T12:16:37;12.38;;;4.82;;
34317;SDS011;20582;52.196;20.952;2023-03-31T12:19:20;11.38;;;4.70;;
34317;SDS011;20582;52.196;20.952;2023-03-31T12:21:50;9.55;;;4.20;;
34317;SDS011;20582;52.196;20.952;2023-03-31T12:29:52;12.13;;;4.40;;
34317;SDS011;20582;52.196;20.952;2023-03-31T12:32:12;11.00;;;4.65;;
34317;SDS011;20582;52.196;20.952;2023-03-31T12:34:42;12.25;;;4.55;;
34317;SDS011;20582;52.196;20.952;2023-03-31T12:39:44;12.35;;;4.07;;
34317;SDS011;20582;52.196;20.952;2023-03-31T12:45:13;11.25;;;4.15;;
34317;SDS011;20582;52.196;20.952;2023-03-31T12:47:50;11.23;;;4.00;;
34317;SDS011;20582;52.196;20.952;2023-03-31T12:52:47;10.82;;;4.35;;
34317;SDS011;20582;52.196;20.952;2023-03-31T12:57:41;10.35;;;4.93;;
34317;SDS011;20582;52.196;20.952;2023-03-31T13:02:41;9.18;;;4.03;;
34317;SDS011;20582;52.196;20.952;2023-03-31T13:07:52;12.23;;;4.63;;
34317;SDS011;20582;52.196;20.952;2023-03-31T13:10:28;8.50;;;3.97;;
34317;SDS011;20582;52.196;20.952;2023-03-31T13:13:02;10.55;;;4.00;;
34317;SDS011;20582;52.196;20.952;2023-03-31T13:15:29;9.32;;;3.65;;
34317;SDS011;20582;52.196;20.952;2023-03-31T13:18:02;8.93;;;3.35;;
34317;SDS011;20582;52.196;20.952;2023-03-31T13:20:29;12.75;;;4.15;;
34317;SDS011;20582;52.196;20.952;2023-03-31T13:23:00;10.77;;;4.15;;
34317;SDS011;20582;52.196;20.952;2023-03-31T13:27:56;10.18;;;4.63;;
34317;SDS011;20582;52.196;20.952;2023-03-31T13:33:04;13.32;;;5.20;;
34317;SDS011;20582;52.196;20.952;2023-03-31T13:35:36;15.55;;;5.60;;
34317;SDS011;20582;52.196;20.952;2023-03-31T13:40:45;18.48;;;7.22;;
34317;SDS011;20582;52.196;20.952;2023-03-31T13:53:53;14.23;;;6.22;;
34317;SDS011;20582;52.196;20.952;2023-03-31T14:04:47;8.63;;;3.80;;
34317;SDS011;20582;52.196;20.952;2023-03-31T14:07:22;10.10;;;3.53;;
34317;SDS011;20582;52.196;20.952;2023-03-31T14:09:51;6.80;;;3.00;;
34317;SDS011;20582;52.196;20.952;2023-03-31T14:12:32;7.93;;;2.70;;
34317;SDS011;20582;52.196;20.952;2023-03-31T14:14:58;8.77;;;3.37;;
34317;SDS011;20582;52.196;20.952;2023-03-31T14:17:26;10.77;;;3.10;;
34317;SDS011;20582;52.196;20.952;2023-03-31T14:20:14;8.40;;;3.13;;
34317;SDS011;20582;52.196;20.952;2023-03-31T14:22:54;8.85;;;3.20;;
34317;SDS011;20582;52.196;20.952;2023-03-31T14:25:33;6.68;;;3.17;;
34317;SDS011;20582;52.196;20.952;2023-03-31T14:35:48;11.50;;;3.90;;
34317;SDS011;20582;52.196;20.952;2023-03-31T14:38:18;9.68;;;3.72;;
34317;SDS011;20582;52.196;20.952;2023-03-31T14:40:48;11.95;;;3.50;;
34317;SDS011;20582;52.196;20.952;2023-03-31T14:43:21;10.85;;;3.90;;
34317;SDS011;20582;52.196;20.952;2023-03-31T14:48:23;11.35;;;3.90;;
34317;SDS011;20582;52.196;20.952;2023-03-31T14:50:55;9.43;;;3.50;;
34317;SDS011;20582;52.196;20.952;2023-03-31T14:53:22;9.23;;;3.42;;
34317;SDS011;20582;52.196;20.952;2023-03-31T14:55:50;11.80;;;3.78;;
34317;SDS011;20582;52.196;20.952;2023-03-31T14:58:38;11.52;;;3.63;;
34317;SDS011;20582;52.196;20.952;2023-03-31T15:01:03;11.13;;;3.58;;
34317;SDS011;20582;52.196;20.952;2023-03-31T15:03:30;11.23;;;3.88;;
34317;SDS011;20582;52.196;20.952;2023-03-31T15:05:57;12.25;;;3.67;;
34317;SDS011;20582;52.196;20.952;2023-03-31T15:08:23;11.30;;;4.00;;
34317;SDS011;20582;52.196;20.952;2023-03-31T15:10:51;10.20;;;3.83;;
34317;SDS011;20582;52.196;20.952;2023-03-31T15:13:27;8.68;;;3.85;;
34317;SDS011;20582;52.196;20.952;2023-03-31T15:15:55;10.82;;;3.53;;
34317;SDS011;20582;52.196;20.952;2023-03-31T15:18:21;9.35;;;3.65;;
34317;SDS011;20582;52.196;20.952;2023-03-31T15:20:50;10.52;;;3.70;;
34317;SDS011;20582;52.196;20.952;2023-03-31T15:23:26;9.75;;;4.05;;
34317;SDS011;20582;52.196;20.952;2023-03-31T15:25:59;8.10;;;4.00;;
34317;SDS011;20582;52.196;20.952;2023-03-31T15:28:30;7.43;;;3.42;;
34317;SDS011;20582;52.196;20.952;2023-03-31T15:30:59;5.67;;;3.80;;
34317;SDS011;20582;52.196;20.952;2023-03-31T15:33:30;7.88;;;3.80;;
34317;SDS011;20582;52.196;20.952;2023-03-31T15:38:27;6.28;;;3.63;;
34317;SDS011;20582;52.196;20.952;2023-03-31T15:40:55;8.27;;;3.55;;
34317;SDS011;20582;52.196;20.952;2023-03-31T15:45:58;9.60;;;3.90;;
34317;SDS011;20582;52.196;20.952;2023-03-31T15:48:26;11.27;;;4.25;;
34317;SDS011;20582;52.196;20.952;2023-03-31T15:50:58;16.08;;;6.90;;
34317;SDS011;20582;52.196;20.952;2023-03-31T15:53:27;22.15;;;10.70;;
34317;SDS011;20582;52.196;20.952;2023-03-31T15:55:54;16.60;;;9.05;;
34317;SDS011;20582;52.196;20.952;2023-03-31T15:58:23;15.32;;;7.03;;
34317;SDS011;20582;52.196;20.952;2023-03-31T16:00:51;18.27;;;9.50;;
34317;SDS011;20582;52.196;20.952;2023-03-31T16:03:22;51.47;;;26.23;;
34317;SDS011;20582;52.196;20.952;2023-03-31T16:05:54;55.53;;;23.58;;
34317;SDS011;20582;52.196;20.952;2023-03-31T16:08:23;29.58;;;14.02;;
34317;SDS011;20582;52.196;20.952;2023-03-31T16:10:54;20.75;;;10.30;;
34317;SDS011;20582;52.196;20.952;2023-03-31T16:13:20;16.25;;;8.77;;
34317;SDS011;20582;52.196;20.952;2023-03-31T16:15:47;9.05;;;3.53;;
34317;SDS011;20582;52.196;20.952;2023-03-31T16:18:16;18.27;;;7.53;;
34317;SDS011;20582;52.196;20.952;2023-03-31T16:20:44;10.13;;;4.50;;
34317;SDS011;20582;52.196;20.952;2023-03-31T16:23:16;8.50;;;3.85;;
34317;SDS011;20582;52.196;20.952;2023-03-31T16:25:43;7.53;;;3.13;;
34317;SDS011;20582;52.196;20.952;2023-03-31T16:28:17;6.30;;;3.28;;
34317;SDS011;20582;52.196;20.952;2023-03-31T16:30:45;6.97;;;3.50;;
34317;SDS011;20582;52.196;20.952;2023-03-31T16:33:12;8.32;;;3.63;;
34317;SDS011;20582;52.196;20.952;2023-03-31T16:35:39;7.05;;;3.63;;
34317;SDS011;20582;52.196;20.952;2023-03-31T16:38:07;10.05;;;4.20;;
34317;SDS011;20582;52.196;20.952;2023-03-31T16:40:37;8.05;;;4.10;;
34317;SDS011;20582;52.196;20.952;2023-03-31T16:43:07;7.05;;;3.60;;
34317;SDS011;20582;52.196;20.952;2023-03-31T16:45:33;9.80;;;3.90;;
34317;SDS011;20582;52.196;20.952;2023-03-31T16:47:59;8.98;;;4.18;;
34317;SDS011;20582;52.196;20.952;2023-03-31T16:50:25;11.05;;;4.20;;
34317;SDS011;20582;52.196;20.952;2023-03-31T16:52:51;9.75;;;3.65;;
34317;SDS011;20582;52.196;20.952;2023-03-31T16:55:17;9.60;;;3.83;;
34317;SDS011;20582;52.196;20.952;2023-03-31T16:57:43;10.82;;;3.53;;
34317;SDS011;20582;52.196;20.952;2023-03-31T17:00:09;8.93;;;3.72;;
34317;SDS011;20582;52.196;20.952;2023-03-31T17:02:35;8.82;;;3.60;;
34317;SDS011;20582;52.196;20.952;2023-03-31T17:05:02;6.90;;;3.47;;
34317;SDS011;20582;52.196;20.952;2023-03-31T17:07:28;11.85;;;4.80;;
34317;SDS011;20582;52.196;20.952;2023-03-31T17:09:54;9.52;;;4.50;;
34317;SDS011;20582;52.196;20.952;2023-03-31T17:12:20;17.77;;;7.72;;
34317;SDS011;20582;52.196;20.952;2023-03-31T17:14:46;18.27;;;7.50;;
34317;SDS011;20582;52.196;20.952;2023-03-31T17:17:12;19.23;;;7.53;;